English version
lugares datos climáticos artículos

datos de Mairena del Aljarafe, Sevilla, España
Año Mes Dia Mostrar

  Fecha       hora        Temp.ext.    Hum.ext.  Dir.Viento   Vel.Viento  Presion al NM   T.int. Prec.hoy 

   28-11-2021    16:25      15.3º(-0.1)     37%      337(NW)      8.0 km/h    1021.6 hpa     22.8º    0.0 mm
   28-11-2021    16:20      15.3º(+0.0)     37%      315(NW)      4.8 km/h    1021.5 hpa     22.8º    0.0 mm
   28-11-2021    16:15      15.2º(-0.0)     37%      000 (N)      6.4 km/h    1021.5 hpa     22.8º    0.0 mm
   28-11-2021    16:10      15.2º(+0.1)     37%      337(NW)      6.4 km/h    1021.4 hpa     22.8º    0.0 mm
   28-11-2021    16:05      15.3º(+0.3)     37%      315(NW)      8.0 km/h    1021.4 hpa     22.8º    0.0 mm
   28-11-2021    16:00      15.4º(+0.4)     37%      337(NW)      6.4 km/h    1021.3 hpa     22.8º    0.0 mm
   28-11-2021    15:55      15.6º(+0.5)     35%      000 (N)      9.7 km/h    1021.3 hpa     22.7º    0.0 mm
   28-11-2021    15:50      15.9º(+0.7)     35%      000 (N)      4.8 km/h    1021.2 hpa     22.7º    0.0 mm
   28-11-2021    15:45      16.0º(+0.8)     36%      270 (W)      4.8 km/h    1021.2 hpa     22.7º    0.0 mm
   28-11-2021    15:40      15.9º(+0.6)     37%         -         0.0 km/h    1021.2 hpa     22.7º    0.0 mm
   28-11-2021    15:35      15.8º(+0.3)     37%      000 (N)      1.6 km/h    1021.2 hpa     22.7º    0.0 mm
   28-11-2021    15:30      15.8º(+0.2)     37%      270 (W)      3.2 km/h    1021.2 hpa     22.7º    0.0 mm
   28-11-2021    15:25      15.8º(+0.3)     37%      270 (W)      3.2 km/h    1021.2 hpa     22.7º    0.0 mm
   28-11-2021    15:20      15.8º(+0.1)     39%      270 (W)      1.6 km/h    1021.3 hpa     22.7º    0.0 mm
   28-11-2021    15:15      15.8º(+0.1)     41%         -         0.0 km/h    1021.3 hpa     22.7º    0.0 mm
   28-11-2021    15:10      15.6º(-0.1)     43%         -         0.0 km/h    1021.3 hpa     22.7º    0.0 mm
   28-11-2021    15:05      15.3º(-0.4)     44%         -         0.0 km/h    1021.2 hpa     22.7º    0.0 mm
   28-11-2021    15:00      15.2º(-0.7)     44%      270 (W)      1.6 km/h    1021.3 hpa     22.7º    0.0 mm
   28-11-2021    14:55      15.2º(-0.8)     45%         -         0.0 km/h    1021.2 hpa     22.7º    0.0 mm
   28-11-2021    14:50      14.9º(-0.8)     46%         -         0.0 km/h    1021.2 hpa     22.7º    0.0 mm
   28-11-2021    14:45      14.8º(-0.7)     45%         -         0.0 km/h    1021.3 hpa     22.6º    0.0 mm
   28-11-2021    14:40      14.6º(-0.8)     47%      157(SE)      1.6 km/h    1021.3 hpa     22.6º    0.0 mm
   28-11-2021    14:35      14.4º(-1.0)     48%         -         0.0 km/h    1021.3 hpa     22.6º    0.0 mm
   28-11-2021    14:30      14.1º(-1.1)     48%         -         0.0 km/h    1021.4 hpa     22.6º    0.0 mm
   28-11-2021    14:25      13.9º(-1.0)     48%      247(SW)      1.6 km/h    1021.6 hpa     22.6º    0.0 mm
   28-11-2021    14:20      13.9º(-0.7)     47%      247(SW)      4.8 km/h    1021.7 hpa     22.6º    0.0 mm
   28-11-2021    14:15      14.3º(-0.0)     47%      247(SW)      1.6 km/h    1021.8 hpa     22.6º    0.0 mm
   28-11-2021    14:10      14.1º(-0.1)     48%         -         0.0 km/h    1021.9 hpa     22.6º    0.0 mm
   28-11-2021    14:05      13.8º(-0.4)     48%         -         0.0 km/h    1021.9 hpa     22.6º    0.0 mm
   28-11-2021    14:00      13.6º(-0.5)     48%      270 (W)      1.6 km/h    1022.0 hpa     22.6º    0.0 mm
   28-11-2021    13:55      13.3º(-0.6)     48%         -         0.0 km/h    1022.2 hpa     22.4º    0.0 mm
   28-11-2021    13:50      13.3º(-0.4)     47%      225(SW)      1.6 km/h    1022.1 hpa     22.4º    0.0 mm
   28-11-2021    13:45      13.4º(-0.0)     47%      247(SW)      3.2 km/h    1022.0 hpa     22.4º    0.0 mm
   28-11-2021    13:40      13.4º(+0.2)     49%         -         0.0 km/h    1021.9 hpa     22.4º    0.0 mm
   28-11-2021    13:35      13.3º(+0.3)     48%      202 (S)      1.6 km/h    1021.9 hpa     22.4º    0.0 mm
   28-11-2021    13:30      13.3º(+0.2)     49%         -         0.0 km/h    1022.1 hpa     22.4º    0.0 mm
   28-11-2021    13:25      13.2º(+0.1)     49%      202 (S)      1.6 km/h    1022.1 hpa     22.3º    0.0 mm
   28-11-2021    13:20      13.2º(+0.2)     49%         -         0.0 km/h    1022.3 hpa     22.2º    0.0 mm
   28-11-2021    13:15      12.8º(-0.1)     51%         -         0.0 km/h    1022.3 hpa     22.1º    0.0 mm
   28-11-2021    13:10      12.4º(-0.4)     53%         -         0.0 km/h    1022.4 hpa     22.1º    0.0 mm
   28-11-2021    13:05      12.1º(-0.5)     53%      090 (E)      3.2 km/h    1022.4 hpa     22.3º    0.0 mm
   28-11-2021    13:00      12.2º(-0.3)     53%      090 (E)      3.2 km/h    1022.5 hpa     22.6º    0.0 mm
   28-11-2021    12:55      12.8º(+0.3)     52%      135(SE)      1.6 km/h    1022.5 hpa     22.8º    0.0 mm
   28-11-2021    12:50      12.5º(-0.1)     53%         -         0.0 km/h    1022.5 hpa     22.8º    0.0 mm
   28-11-2021    12:45      12.1º(-0.3)     52%         -         0.0 km/h    1022.5 hpa     22.8º    0.0 mm
   28-11-2021    12:40      11.7º(-0.7)     53%      135(SE)      1.6 km/h    1022.5 hpa     22.8º    0.0 mm
   28-11-2021    12:35      11.6º(-0.7)     54%      135(SE)      1.6 km/h    1022.5 hpa     22.8º    0.0 mm
   28-11-2021    12:30      11.3º(-0.8)     57%         -         0.0 km/h    1022.6 hpa     22.8º    0.0 mm
   28-11-2021    12:25      11.2º(-0.7)     54%      112 (E)      1.6 km/h    1022.6 hpa     22.8º    0.0 mm
   28-11-2021    12:20      11.3º(-0.5)     57%      112 (E)      1.6 km/h    1022.7 hpa     22.8º    0.0 mm
   28-11-2021    12:15      11.3º(-0.5)     58%      112 (E)      4.8 km/h    1022.9 hpa     22.8º    0.0 mm
   28-11-2021    12:10      11.5º(-0.1)     57%      112 (E)      1.6 km/h    1022.9 hpa     22.8º    0.0 mm
   28-11-2021    12:05      11.8º(+0.3)     55%      112 (E)      3.2 km/h    1023.0 hpa     22.8º    0.0 mm
   28-11-2021    12:00      12.4º(+1.2)     51%         -         0.0 km/h    1022.9 hpa     22.8º    0.0 mm
   28-11-2021    11:55      12.2º(+1.2)     50%         -         0.0 km/h    1022.9 hpa     22.8º    0.0 mm
   28-11-2021    11:50      12.0º(+1.2)     50%         -         0.0 km/h    1023.0 hpa     22.8º    0.0 mm
   28-11-2021    11:45      12.0º(+1.2)     51%         -         0.0 km/h    1022.9 hpa     22.7º    0.0 mm
   28-11-2021    11:40      11.8º(+1.2)     50%         -         0.0 km/h    1022.8 hpa     22.7º    0.0 mm
   28-11-2021    11:35      11.6º(+1.2)     51%         -         0.0 km/h    1022.7 hpa     22.7º    0.0 mm
   28-11-2021    11:30      11.3º(+1.1)     52%         -         0.0 km/h    1022.7 hpa     22.7º    0.0 mm
   28-11-2021    11:25      11.2º(+1.1)     52%         -         0.0 km/h    1022.5 hpa     22.7º    0.0 mm
   28-11-2021    11:20      11.0º(+0.9)     53%         -         0.0 km/h    1022.5 hpa     22.6º    0.0 mm
   28-11-2021    11:15      10.8º(+0.7)     54%         -         0.0 km/h    1022.4 hpa     22.6º    0.0 mm
   28-11-2021    11:10      10.4º(+0.3)     54%         -         0.0 km/h    1022.5 hpa     22.6º    0.0 mm
   28-11-2021    11:05      10.2º(-0.0)     54%      292 (W)      1.6 km/h    1022.4 hpa     22.4º    0.0 mm
   28-11-2021    11:00      10.0º(-0.2)     57%         -         0.0 km/h    1022.4 hpa     22.4º    0.0 mm
   28-11-2021    10:55       9.6º(-0.7)     58%         -         0.0 km/h    1022.4 hpa     22.4º    0.0 mm
   28-11-2021    10:50       9.2º(-1.1)     59%         -         0.0 km/h    1022.3 hpa     22.4º    0.0 mm
   28-11-2021    10:45       8.9º(-1.4)     60%         -         0.0 km/h    1022.2 hpa     22.3º    0.0 mm
   28-11-2021    10:40       8.8º(-1.2)     60%         -         0.0 km/h    1022.3 hpa     22.3º    0.0 mm
   28-11-2021    10:35       8.8º(-0.9)     60%         -         0.0 km/h    1022.3 hpa     22.2º    0.0 mm
   28-11-2021    10:30       8.7º(-0.7)     62%         -         0.0 km/h    1022.2 hpa     22.2º    0.0 mm
   28-11-2021    10:25       8.4º(-0.8)     63%         -         0.0 km/h    1022.2 hpa     22.1º    0.0 mm
   28-11-2021    10:20       8.2º(-0.7)     65%         -         0.0 km/h    1022.2 hpa     22.0º    0.0 mm
   28-11-2021    10:15       7.9º(-0.8)     65%         -         0.0 km/h    1022.2 hpa     22.0º    0.0 mm
   28-11-2021    10:10       7.8º(-0.7)     66%         -         0.0 km/h    1022.1 hpa     21.9º    0.0 mm
   28-11-2021    10:05       7.5º(-0.7)     67%         -         0.0 km/h    1022.0 hpa     21.8º    0.0 mm
   28-11-2021    10:00       7.3º(-0.5)     68%         -         0.0 km/h    1021.9 hpa     21.7º    0.0 mm
   28-11-2021    09:55       7.2º(-0.1)     69%         -         0.0 km/h    1021.8 hpa     21.7º    0.0 mm
   28-11-2021    09:50       6.9º(+0.1)     69%         -         0.0 km/h    1021.8 hpa     21.6º    0.0 mm
   28-11-2021    09:45       6.8º(+0.2)     70%         -         0.0 km/h    1021.7 hpa     21.5º    0.0 mm
   28-11-2021    09:40       6.5º(+0.1)     71%         -         0.0 km/h    1021.6 hpa     21.4º    0.0 mm
   28-11-2021    09:35       6.2º(-0.1)     72%         -         0.0 km/h    1021.6 hpa     21.3º    0.0 mm
   28-11-2021    09:30       5.9º(-0.4)     72%         -         0.0 km/h    1021.5 hpa     21.3º    0.0 mm
   28-11-2021    09:25       5.8º(-0.4)     72%         -         0.0 km/h    1021.5 hpa     21.2º    0.0 mm
   28-11-2021    09:20       5.7º(-0.1)     73%         -         0.0 km/h    1021.4 hpa     21.2º    0.0 mm
   28-11-2021    09:15       5.5º(-0.2)     73%         -         0.0 km/h    1021.3 hpa     21.2º    0.0 mm
   28-11-2021    09:10       5.4º(-0.2)     73%         -         0.0 km/h    1021.3 hpa     21.2º    0.0 mm
   28-11-2021    09:05       5.3º(-0.1)     73%      315(NW)      1.6 km/h    1021.2 hpa     21.2º    0.0 mm
   28-11-2021    09:00       5.3º(-0.1)     73%      337(NW)      1.6 km/h    1021.0 hpa     21.1º    0.0 mm
   28-11-2021    08:55       5.3º(-0.1)     72%      337(NW)      1.6 km/h    1021.0 hpa     21.1º    0.0 mm
   28-11-2021    08:50       5.3º(-0.0)     72%      315(NW)      1.6 km/h    1021.0 hpa     21.1º    0.0 mm
   28-11-2021    08:45        - º(----)      -%         -          -  km/h    1020.8 hpa     20.9º    0.0 mm
   28-11-2021    08:40        - º(----)      -%         -          -  km/h    1020.7 hpa     20.9º    0.0 mm
   28-11-2021    08:35        - º(----)      -%         -          -  km/h    1020.8 hpa     20.9º    0.0 mm
   28-11-2021    08:30        - º(----)      -%         -          -  km/h    1020.6 hpa     20.9º    0.0 mm
   28-11-2021    08:25        - º(----)      -%         -          -  km/h    1020.7 hpa     20.8º    0.0 mm
   28-11-2021    08:20        - º(----)      -%         -          -  km/h    1020.8 hpa     20.8º    0.0 mm
   28-11-2021    08:15        - º(----)      -%         -          -  km/h    1020.8 hpa     20.9º    0.0 mm
   28-11-2021    08:10        - º(----)      -%         -          -  km/h    1020.6 hpa     20.8º    0.0 mm
   28-11-2021    08:05        - º(----)      -%         -          -  km/h    1020.4 hpa     20.8º    0.0 mm
   28-11-2021    08:00        - º(----)      -%         -          -  km/h    1020.3 hpa     20.9º    0.0 mm
   28-11-2021    07:55        - º(----)      -%         -          -  km/h    1020.3 hpa     20.8º    0.0 mm
   28-11-2021    07:50        - º(----)      -%         -          -  km/h    1020.2 hpa     20.8º    0.0 mm
   28-11-2021    07:45        - º(----)      -%         -          -  km/h    1020.0 hpa     20.9º    0.0 mm
   28-11-2021    07:40        - º(----)      -%         -          -  km/h    1020.0 hpa     20.8º    0.0 mm
   28-11-2021    07:35        - º(----)      -%         -          -  km/h    1019.8 hpa     20.8º    0.0 mm
   28-11-2021    07:30        - º(----)      -%         -          -  km/h    1019.7 hpa     20.8º    0.0 mm
   28-11-2021    07:25        - º(----)      -%         -          -  km/h    1019.7 hpa     20.9º    0.0 mm
   28-11-2021    07:20        - º(----)      -%         -          -  km/h    1019.5 hpa     20.8º    0.0 mm
   28-11-2021    07:15        - º(----)      -%         -          -  km/h    1019.5 hpa     20.8º    0.0 mm
   28-11-2021    07:10        - º(----)      -%         -          -  km/h    1019.5 hpa     20.9º    0.0 mm
   28-11-2021    07:05        - º(----)      -%         -          -  km/h    1019.3 hpa     20.8º    0.0 mm
   28-11-2021    07:00        - º(----)      -%         -          -  km/h    1019.2 hpa     20.8º    0.0 mm
   28-11-2021    06:55        - º(----)      -%         -          -  km/h    1019.2 hpa     20.9º    0.0 mm
   28-11-2021    06:50        - º(----)      -%         -          -  km/h    1019.1 hpa     20.9º    0.0 mm
   28-11-2021    06:45        - º(----)      -%         -          -  km/h    1018.9 hpa     20.9º    0.0 mm
   28-11-2021    06:40        - º(----)      -%         -          -  km/h    1018.9 hpa     20.9º    0.0 mm
   28-11-2021    06:35        - º(----)      -%         -          -  km/h    1019.1 hpa     20.9º    0.0 mm
   28-11-2021    06:30        - º(----)      -%         -          -  km/h    1018.9 hpa     20.8º    0.0 mm
   28-11-2021    06:25        - º(----)      -%         -          -  km/h    1018.8 hpa     20.8º    0.0 mm
   28-11-2021    06:20        - º(----)      -%         -          -  km/h    1018.8 hpa     20.9º    0.0 mm
   28-11-2021    06:15        - º(----)      -%         -          -  km/h    1018.8 hpa     20.8º    0.0 mm
   28-11-2021    06:10        - º(----)      -%         -          -  km/h    1018.6 hpa     20.8º    0.0 mm
   28-11-2021    06:05        - º(----)      -%         -          -  km/h    1018.7 hpa     20.9º    0.0 mm
   28-11-2021    06:00        - º(----)      -%         -          -  km/h    1018.8 hpa     21.1º    0.0 mm
   28-11-2021    05:55        - º(----)      -%         -          -  km/h    1018.8 hpa     20.9º    0.0 mm
   28-11-2021    05:50        - º(----)      -%         -          -  km/h    1018.8 hpa     20.9º    0.0 mm
   28-11-2021    05:45        - º(----)      -%         -          -  km/h    1018.7 hpa     21.2º    0.0 mm
   28-11-2021    05:40       6.8º(-0.2)     61%         -          -  km/h    1018.6 hpa     21.2º    0.0 mm
   28-11-2021    05:35       6.8º(-0.3)     61%         -         0.0 km/h    1018.7 hpa     21.1º    0.0 mm
   28-11-2021    05:30       6.9º(-0.1)     60%         -         0.0 km/h    1018.6 hpa     20.9º    0.0 mm
   28-11-2021    05:25       7.1º(+0.0)     60%      337(NW)      1.6 km/h    1018.5 hpa     20.9º    0.0 mm
   28-11-2021    05:20       7.2º(+0.1)     59%      337(NW)      1.6 km/h    1018.5 hpa     20.9º    0.0 mm
   28-11-2021    05:15       7.2º(+0.1)     58%      337(NW)      3.2 km/h    1018.5 hpa     20.9º    0.0 mm
   28-11-2021    05:10       7.3º(+0.3)     58%      337(NW)      3.2 km/h    1018.5 hpa     20.9º    0.0 mm
   28-11-2021    05:05       7.4º(+0.3)     57%      315(NW)      3.2 km/h    1018.4 hpa     20.9º    0.0 mm
   28-11-2021    05:00       7.6º(+0.6)     56%      337(NW)      4.8 km/h    1018.2 hpa     20.9º    0.0 mm
   28-11-2021    04:55       7.8º(+0.9)     56%      337(NW)      3.2 km/h    1018.1 hpa     20.9º    0.0 mm
   28-11-2021    04:50       7.8º(+0.8)     55%      000 (N)      4.8 km/h    1018.1 hpa     21.1º    0.0 mm
   28-11-2021    04:45       7.9º(+0.8)     55%      000 (N)      4.8 km/h    1018.1 hpa     21.1º    0.0 mm
   28-11-2021    04:40       8.1º(+0.9)     55%      000 (N)      4.8 km/h    1018.1 hpa     21.1º    0.0 mm
   28-11-2021    04:35       8.2º(+1.0)     54%      000 (N)      4.8 km/h    1018.1 hpa     21.1º    0.0 mm
   28-11-2021    04:30       8.3º(+1.0)     54%      000 (N)      4.8 km/h    1018.1 hpa     21.2º    0.0 mm
   28-11-2021    04:25       8.3º(+0.9)     53%      000 (N)      4.8 km/h    1018.1 hpa     21.2º    0.0 mm
   28-11-2021    04:20       8.3º(+0.7)     53%      000 (N)      6.4 km/h    1018.1 hpa     21.2º    0.0 mm
   28-11-2021    04:15       8.2º(+0.5)     54%      000 (N)      6.4 km/h    1018.1 hpa     21.2º    0.0 mm
   28-11-2021    04:10       8.0º(+0.2)     55%      000 (N)      6.4 km/h    1017.9 hpa     21.2º    0.0 mm
   28-11-2021    04:05       7.8º(-0.2)     56%      337(NW)      6.4 km/h    1017.9 hpa     21.2º    0.0 mm
   28-11-2021    04:00       7.7º(-0.5)     56%      337(NW)      6.4 km/h    1017.9 hpa     21.2º    0.0 mm
   28-11-2021    03:55       7.7º(-0.7)     57%      337(NW)      6.4 km/h    1017.9 hpa     21.3º    0.0 mm
   28-11-2021    03:50       7.7º(-0.9)     57%      337(NW)      4.8 km/h    1017.7 hpa     21.3º    0.0 mm
   28-11-2021    03:45       7.6º(-1.1)     57%      337(NW)      4.8 km/h    1017.8 hpa     21.3º    0.0 mm
   28-11-2021    03:40       7.7º(-1.1)     57%      337(NW)      4.8 km/h    1017.9 hpa     21.4º    0.0 mm
   28-11-2021    03:35       7.7º(-1.1)     57%      337(NW)      6.4 km/h    1017.8 hpa     21.4º    0.0 mm
   28-11-2021    03:30       7.7º(-1.2)     57%      337(NW)      4.8 km/h    1017.7 hpa     21.4º    0.0 mm
   28-11-2021    03:25       7.7º(-1.3)     57%      000 (N)      6.4 km/h    1017.7 hpa     21.5º    0.0 mm
   28-11-2021    03:20       7.7º(-1.4)     58%      337(NW)      4.8 km/h    1017.8 hpa     21.5º    0.0 mm
   28-11-2021    03:15       7.7º(-1.4)     58%      000 (N)      4.8 km/h    1017.8 hpa     21.5º    0.0 mm
   28-11-2021    03:10       7.7º(-1.4)     61%      000 (N)      3.2 km/h    1017.8 hpa     21.6º    0.0 mm
   28-11-2021    03:05       7.8º(-1.3)     58%      000 (N)      3.2 km/h    1017.8 hpa     21.6º    0.0 mm
   28-11-2021    03:00       7.8º(-1.3)     58%      000 (N)      4.8 km/h    1017.8 hpa     21.6º    0.0 mm
   28-11-2021    02:55       7.8º(-1.3)     58%      337(NW)      4.8 km/h    1017.9 hpa     21.7º    0.0 mm
   28-11-2021    02:50       7.9º(-1.1)     58%      337(NW)      6.4 km/h    1017.9 hpa     21.7º    0.0 mm
   28-11-2021    02:45       7.9º(-1.0)     59%      337(NW)      4.8 km/h    1017.6 hpa     21.8º    0.0 mm
   28-11-2021    02:40       7.9º(-0.9)     59%      337(NW)      4.8 km/h    1017.6 hpa     21.8º    0.0 mm
   28-11-2021    02:35       7.9º(-0.9)     59%      337(NW)      4.8 km/h    1017.5 hpa     21.8º    0.0 mm
   28-11-2021    02:30       7.9º(-0.9)     59%      337(NW)      4.8 km/h    1017.4 hpa     21.9º    0.0 mm
   28-11-2021    02:25       8.1º(-0.8)     59%      337(NW)      4.8 km/h    1017.4 hpa     21.9º    0.0 mm
   28-11-2021    02:20       8.2º(-0.7)     59%      337(NW)      4.8 km/h    1017.3 hpa     21.9º    0.0 mm
   28-11-2021    02:15       8.2º(-0.7)     59%      000 (N)      4.8 km/h    1017.4 hpa     22.0º    0.0 mm
   28-11-2021    02:10       8.2º(-0.8)     60%      337(NW)      4.8 km/h    1017.4 hpa     22.0º    0.0 mm
   28-11-2021    02:05       8.1º(-0.8)     61%      337(NW)      4.8 km/h    1017.5 hpa     22.0º    0.0 mm
   28-11-2021    02:00       8.1º(-0.8)     61%      337(NW)      4.8 km/h    1017.5 hpa     22.1º    0.0 mm
   28-11-2021    01:55       8.1º(-0.9)     61%      337(NW)      4.8 km/h    1017.6 hpa     22.1º    0.0 mm
   28-11-2021    01:50       8.3º(-0.8)     61%      337(NW)      6.4 km/h    1017.5 hpa     22.1º    0.0 mm
   28-11-2021    01:45       8.4º(-0.7)     61%      337(NW)      4.8 km/h    1017.5 hpa     22.1º    0.0 mm
   28-11-2021    01:40       8.6º(-0.5)     60%      337(NW)      6.4 km/h    1017.4 hpa     22.2º    0.0 mm
   28-11-2021    01:35       8.6º(-0.5)     60%      337(NW)      6.4 km/h    1017.4 hpa     22.2º    0.0 mm
   28-11-2021    01:30       8.6º(-0.5)     61%      337(NW)      6.4 km/h    1017.4 hpa     22.2º    0.0 mm
   28-11-2021    01:25       8.4º(-0.7)     63%      337(NW)      4.8 km/h    1017.3 hpa     22.2º    0.0 mm
   28-11-2021    01:20       8.5º(-0.7)     63%      337(NW)      4.8 km/h    1017.3 hpa     22.3º    0.0 mm
   28-11-2021    01:15       8.6º(-0.6)     63%      337(NW)      4.8 km/h    1017.3 hpa     22.3º    0.0 mm
   28-11-2021    01:10       8.6º(-0.7)     64%      337(NW)      4.8 km/h    1017.2 hpa     22.4º    0.0 mm
   28-11-2021    01:05       8.4º(-1.0)     66%      337(NW)      6.4 km/h    1017.2 hpa     22.4º    0.0 mm
   28-11-2021    01:00       8.3º(-1.2)     68%      000 (N)      4.8 km/h    1017.1 hpa     22.4º    0.0 mm
   28-11-2021    00:55       8.3º(----)     68%      337(NW)      4.8 km/h    1017.2 hpa     22.4º    0.0 mm
   28-11-2021    00:50       8.4º(----)     69%      337(NW)      4.8 km/h    1017.1 hpa     22.4º    0.0 mm
   28-11-2021    00:45       8.5º(----)     68%      337(NW)      4.8 km/h    1017.1 hpa     22.4º    0.0 mm
   28-11-2021    00:40       8.7º(----)     68%      337(NW)      4.8 km/h    1017.0 hpa     22.6º    0.0 mm
   28-11-2021    00:35       8.7º(----)     68%      337(NW)      4.8 km/h    1016.9 hpa     22.6º    0.0 mm
   28-11-2021    00:30       8.7º(----)     68%      337(NW)      4.8 km/h    1017.0 hpa     22.6º    0.0 mm
   28-11-2021    00:25       8.8º(----)     68%      337(NW)      4.8 km/h    1017.0 hpa     22.7º    0.0 mm
   28-11-2021    00:20       8.9º(----)     67%      337(NW)      4.8 km/h    1017.0 hpa     22.7º    0.0 mm
   28-11-2021    00:15       8.9º(----)     67%      000 (N)      4.8 km/h    1017.0 hpa     22.8º    0.0 mm
   28-11-2021    00:10       9.1º(----)     67%      337(NW)      4.8 km/h    1017.0 hpa     22.8º    0.0 mm
   28-11-2021    00:05       9.1º(----)     67%      337(NW)      4.8 km/h    1017.0 hpa     22.8º    0.0 mm
   28-11-2021    00:00       9.2º(----)     67%      337(NW)      4.8 km/h    1017.0 hpa     22.8º    0.0 mm